sensor_id;sensor_type;location;lat;lon;timestamp;P1;durP1;ratioP1;P2;durP2;ratioP2
83030;SDS011;72845;35.234;23.636;2023-09-19T00:00:23;7.35;;;4.72;;
83030;SDS011;72845;35.234;23.636;2023-09-19T00:02:56;11.00;;;5.60;;
83030;SDS011;72845;35.234;23.636;2023-09-19T00:05:22;11.10;;;4.80;;
83030;SDS011;72845;35.234;23.636;2023-09-19T00:07:52;9.95;;;4.90;;
83030;SDS011;72845;35.234;23.636;2023-09-19T00:10:22;9.82;;;4.72;;
83030;SDS011;72845;35.234;23.636;2023-09-19T00:12:52;7.72;;;4.65;;
83030;SDS011;72845;35.234;23.636;2023-09-19T00:15:24;12.77;;;5.18;;
83030;SDS011;72845;35.234;23.636;2023-09-19T00:17:49;9.20;;;5.28;;
83030;SDS011;72845;35.234;23.636;2023-09-19T00:20:17;8.13;;;4.30;;
83030;SDS011;72845;35.234;23.636;2023-09-19T00:22:43;11.90;;;5.18;;
83030;SDS011;72845;35.234;23.636;2023-09-19T00:25:08;8.70;;;4.82;;
83030;SDS011;72845;35.234;23.636;2023-09-19T00:27:40;10.52;;;5.22;;
83030;SDS011;72845;35.234;23.636;2023-09-19T00:30:07;10.88;;;5.13;;
83030;SDS011;72845;35.234;23.636;2023-09-19T00:32:38;11.52;;;4.60;;
83030;SDS011;72845;35.234;23.636;2023-09-19T00:35:03;8.13;;;5.00;;
83030;SDS011;72845;35.234;23.636;2023-09-19T00:37:29;12.15;;;5.57;;
83030;SDS011;72845;35.234;23.636;2023-09-19T00:39:55;10.30;;;5.10;;
83030;SDS011;72845;35.234;23.636;2023-09-19T00:42:20;8.23;;;4.90;;
83030;SDS011;72845;35.234;23.636;2023-09-19T00:44:46;10.60;;;4.93;;
83030;SDS011;72845;35.234;23.636;2023-09-19T00:47:12;9.90;;;5.40;;
83030;SDS011;72845;35.234;23.636;2023-09-19T00:49:42;10.20;;;4.90;;
83030;SDS011;72845;35.234;23.636;2023-09-19T00:52:08;10.77;;;5.28;;
83030;SDS011;72845;35.234;23.636;2023-09-19T00:54:35;11.77;;;6.05;;
83030;SDS011;72845;35.234;23.636;2023-09-19T00:57:01;14.05;;;5.70;;
83030;SDS011;72845;35.234;23.636;2023-09-19T00:59:27;10.20;;;4.88;;
83030;SDS011;72845;35.234;23.636;2023-09-19T01:01:52;9.38;;;4.55;;
83030;SDS011;72845;35.234;23.636;2023-09-19T01:04:19;10.27;;;4.50;;
83030;SDS011;72845;35.234;23.636;2023-09-19T01:06:45;8.75;;;4.63;;
83030;SDS011;72845;35.234;23.636;2023-09-19T01:09:11;10.38;;;5.65;;
83030;SDS011;72845;35.234;23.636;2023-09-19T01:17:05;16.92;;;6.13;;
83030;SDS011;72845;35.234;23.636;2023-09-19T01:22:17;14.43;;;5.55;;
83030;SDS011;72845;35.234;23.636;2023-09-19T01:29:47;38.65;;;7.57;;
83030;SDS011;72845;35.234;23.636;2023-09-19T01:32:15;19.85;;;5.93;;
83030;SDS011;72845;35.234;23.636;2023-09-19T01:34:54;11.27;;;5.53;;
83030;SDS011;72845;35.234;23.636;2023-09-19T01:37:21;10.85;;;5.10;;
83030;SDS011;72845;35.234;23.636;2023-09-19T01:39:58;10.23;;;4.65;;
83030;SDS011;72845;35.234;23.636;2023-09-19T01:42:49;33.17;;;6.28;;
83030;SDS011;72845;35.234;23.636;2023-09-19T01:45:24;9.68;;;5.00;;
83030;SDS011;72845;35.234;23.636;2023-09-19T01:47:52;9.60;;;5.07;;
83030;SDS011;72845;35.234;23.636;2023-09-19T01:52:48;7.53;;;4.30;;
83030;SDS011;72845;35.234;23.636;2023-09-19T01:55:16;8.95;;;4.88;;
83030;SDS011;72845;35.234;23.636;2023-09-19T01:57:51;7.68;;;4.88;;
83030;SDS011;72845;35.234;23.636;2023-09-19T02:00:19;13.35;;;5.40;;
83030;SDS011;72845;35.234;23.636;2023-09-19T02:02:47;10.90;;;5.38;;
83030;SDS011;72845;35.234;23.636;2023-09-19T02:05:13;11.07;;;4.80;;
83030;SDS011;72845;35.234;23.636;2023-09-19T02:07:38;15.68;;;5.22;;
83030;SDS011;72845;35.234;23.636;2023-09-19T02:10:05;13.77;;;4.82;;
83030;SDS011;72845;35.234;23.636;2023-09-19T02:12:32;11.27;;;5.53;;
83030;SDS011;72845;35.234;23.636;2023-09-19T02:15:00;10.27;;;5.43;;
83030;SDS011;72845;35.234;23.636;2023-09-19T02:17:26;12.27;;;5.57;;
83030;SDS011;72845;35.234;23.636;2023-09-19T02:19:52;7.32;;;4.18;;
83030;SDS011;72845;35.234;23.636;2023-09-19T02:22:17;12.25;;;5.13;;
83030;SDS011;72845;35.234;23.636;2023-09-19T02:24:43;11.00;;;5.00;;
83030;SDS011;72845;35.234;23.636;2023-09-19T02:27:08;9.00;;;5.20;;
83030;SDS011;72845;35.234;23.636;2023-09-19T02:29:34;10.73;;;4.97;;
83030;SDS011;72845;35.234;23.636;2023-09-19T02:32:00;10.35;;;5.25;;
83030;SDS011;72845;35.234;23.636;2023-09-19T02:34:27;11.07;;;5.68;;
83030;SDS011;72845;35.234;23.636;2023-09-19T02:36:53;12.80;;;5.35;;
83030;SDS011;72845;35.234;23.636;2023-09-19T02:39:20;13.90;;;5.05;;
83030;SDS011;72845;35.234;23.636;2023-09-19T02:41:45;17.67;;;5.50;;
83030;SDS011;72845;35.234;23.636;2023-09-19T02:44:11;16.70;;;5.80;;
83030;SDS011;72845;35.234;23.636;2023-09-19T02:46:37;10.23;;;4.88;;
83030;SDS011;72845;35.234;23.636;2023-09-19T02:49:03;9.13;;;4.53;;
83030;SDS011;72845;35.234;23.636;2023-09-19T02:51:31;11.50;;;5.15;;
83030;SDS011;72845;35.234;23.636;2023-09-19T02:53:58;11.60;;;5.28;;
83030;SDS011;72845;35.234;23.636;2023-09-19T02:56:24;11.70;;;5.45;;
83030;SDS011;72845;35.234;23.636;2023-09-19T02:58:50;14.63;;;5.07;;
83030;SDS011;72845;35.234;23.636;2023-09-19T03:01:16;12.43;;;5.35;;
83030;SDS011;72845;35.234;23.636;2023-09-19T03:03:43;8.00;;;4.65;;
83030;SDS011;72845;35.234;23.636;2023-09-19T03:06:10;9.57;;;5.35;;
83030;SDS011;72845;35.234;23.636;2023-09-19T03:08:36;8.07;;;5.32;;
83030;SDS011;72845;35.234;23.636;2023-09-19T03:11:04;9.00;;;4.97;;
83030;SDS011;72845;35.234;23.636;2023-09-19T03:13:41;19.85;;;5.90;;
83030;SDS011;72845;35.234;23.636;2023-09-19T03:16:07;11.55;;;5.00;;
83030;SDS011;72845;35.234;23.636;2023-09-19T03:18:36;9.65;;;5.20;;
83030;SDS011;72845;35.234;23.636;2023-09-19T03:21:01;13.00;;;4.75;;
83030;SDS011;72845;35.234;23.636;2023-09-19T03:23:28;10.80;;;5.57;;
83030;SDS011;72845;35.234;23.636;2023-09-19T03:25:54;11.90;;;5.15;;
83030;SDS011;72845;35.234;23.636;2023-09-19T03:28:19;11.77;;;4.97;;
83030;SDS011;72845;35.234;23.636;2023-09-19T03:30:46;11.82;;;5.32;;
83030;SDS011;72845;35.234;23.636;2023-09-19T03:33:11;13.80;;;5.28;;
83030;SDS011;72845;35.234;23.636;2023-09-19T03:35:37;14.27;;;5.10;;
83030;SDS011;72845;35.234;23.636;2023-09-19T03:38:03;18.70;;;5.35;;
83030;SDS011;72845;35.234;23.636;2023-09-19T03:40:29;14.00;;;4.72;;
83030;SDS011;72845;35.234;23.636;2023-09-19T03:42:54;32.67;;;6.40;;
83030;SDS011;72845;35.234;23.636;2023-09-19T03:45:20;19.23;;;5.07;;
83030;SDS011;72845;35.234;23.636;2023-09-19T03:47:45;15.35;;;5.63;;
83030;SDS011;72845;35.234;23.636;2023-09-19T03:50:14;13.93;;;4.88;;
83030;SDS011;72845;35.234;23.636;2023-09-19T03:52:43;11.10;;;4.82;;
83030;SDS011;72845;35.234;23.636;2023-09-19T03:55:08;9.55;;;4.05;;
83030;SDS011;72845;35.234;23.636;2023-09-19T03:57:35;11.93;;;4.50;;
83030;SDS011;72845;35.234;23.636;2023-09-19T04:00:00;9.57;;;4.13;;
83030;SDS011;72845;35.234;23.636;2023-09-19T04:02:26;10.35;;;4.55;;
83030;SDS011;72845;35.234;23.636;2023-09-19T04:04:58;9.15;;;4.88;;
83030;SDS011;72845;35.234;23.636;2023-09-19T04:07:23;11.65;;;4.60;;
83030;SDS011;72845;35.234;23.636;2023-09-19T04:09:51;8.25;;;4.65;;
83030;SDS011;72845;35.234;23.636;2023-09-19T04:12:18;13.13;;;5.22;;
83030;SDS011;72845;35.234;23.636;2023-09-19T04:14:44;9.43;;;4.95;;
83030;SDS011;72845;35.234;23.636;2023-09-19T04:17:10;9.93;;;4.38;;
83030;SDS011;72845;35.234;23.636;2023-09-19T04:19:36;10.80;;;4.40;;
83030;SDS011;72845;35.234;23.636;2023-09-19T04:22:01;12.20;;;5.03;;
83030;SDS011;72845;35.234;23.636;2023-09-19T04:24:27;8.18;;;4.18;;
83030;SDS011;72845;35.234;23.636;2023-09-19T04:26:52;9.98;;;4.57;;
83030;SDS011;72845;35.234;23.636;2023-09-19T04:29:18;12.13;;;5.28;;
83030;SDS011;72845;35.234;23.636;2023-09-19T04:31:44;9.57;;;4.45;;
83030;SDS011;72845;35.234;23.636;2023-09-19T04:34:11;9.13;;;4.47;;
83030;SDS011;72845;35.234;23.636;2023-09-19T04:36:42;7.78;;;4.38;;
83030;SDS011;72845;35.234;23.636;2023-09-19T04:39:08;11.23;;;4.57;;
83030;SDS011;72845;35.234;23.636;2023-09-19T04:41:35;8.32;;;4.82;;
83030;SDS011;72845;35.234;23.636;2023-09-19T04:44:04;14.30;;;5.05;;
83030;SDS011;72845;35.234;23.636;2023-09-19T04:46:29;12.35;;;5.10;;
83030;SDS011;72845;35.234;23.636;2023-09-19T04:48:55;10.07;;;4.30;;
83030;SDS011;72845;35.234;23.636;2023-09-19T04:51:20;10.77;;;5.13;;
83030;SDS011;72845;35.234;23.636;2023-09-19T04:53:46;19.40;;;10.57;;
83030;SDS011;72845;35.234;23.636;2023-09-19T04:56:11;13.85;;;5.65;;
83030;SDS011;72845;35.234;23.636;2023-09-19T04:58:36;12.35;;;5.50;;
83030;SDS011;72845;35.234;23.636;2023-09-19T05:01:02;13.02;;;7.82;;
83030;SDS011;72845;35.234;23.636;2023-09-19T05:03:28;11.43;;;5.10;;
83030;SDS011;72845;35.234;23.636;2023-09-19T05:05:54;11.55;;;4.95;;
83030;SDS011;72845;35.234;23.636;2023-09-19T05:08:19;15.70;;;4.70;;
83030;SDS011;72845;35.234;23.636;2023-09-19T05:10:47;8.35;;;4.70;;
83030;SDS011;72845;35.234;23.636;2023-09-19T05:13:12;14.77;;;13.55;;
83030;SDS011;72845;35.234;23.636;2023-09-19T05:15:38;11.57;;;4.75;;
83030;SDS011;72845;35.234;23.636;2023-09-19T05:18:04;13.70;;;5.15;;
83030;SDS011;72845;35.234;23.636;2023-09-19T05:20:31;9.63;;;5.90;;
83030;SDS011;72845;35.234;23.636;2023-09-19T05:23:05;12.55;;;4.60;;
83030;SDS011;72845;35.234;23.636;2023-09-19T05:25:33;7.85;;;4.50;;
83030;SDS011;72845;35.234;23.636;2023-09-19T05:28:02;12.35;;;4.78;;
83030;SDS011;72845;35.234;23.636;2023-09-19T05:30:33;18.20;;;4.90;;
83030;SDS011;72845;35.234;23.636;2023-09-19T05:33:01;10.73;;;4.65;;
83030;SDS011;72845;35.234;23.636;2023-09-19T05:35:27;8.20;;;5.20;;
83030;SDS011;72845;35.234;23.636;2023-09-19T05:37:53;10.02;;;4.18;;
83030;SDS011;72845;35.234;23.636;2023-09-19T05:40:18;13.23;;;4.65;;
83030;SDS011;72845;35.234;23.636;2023-09-19T05:42:44;8.77;;;4.65;;
83030;SDS011;72845;35.234;23.636;2023-09-19T05:45:10;10.38;;;4.40;;
83030;SDS011;72845;35.234;23.636;2023-09-19T05:47:39;6.80;;;4.65;;
83030;SDS011;72845;35.234;23.636;2023-09-19T05:50:06;10.27;;;4.65;;
83030;SDS011;72845;35.234;23.636;2023-09-19T05:52:33;14.43;;;5.07;;
83030;SDS011;72845;35.234;23.636;2023-09-19T05:54:58;7.45;;;4.00;;
83030;SDS011;72845;35.234;23.636;2023-09-19T05:57:25;9.60;;;4.78;;
83030;SDS011;72845;35.234;23.636;2023-09-19T05:59:50;12.88;;;5.07;;
83030;SDS011;72845;35.234;23.636;2023-09-19T06:02:15;10.88;;;4.40;;
83030;SDS011;72845;35.234;23.636;2023-09-19T06:04:41;8.98;;;4.43;;
83030;SDS011;72845;35.234;23.636;2023-09-19T06:07:06;10.80;;;5.10;;
83030;SDS011;72845;35.234;23.636;2023-09-19T06:09:32;13.88;;;4.93;;
83030;SDS011;72845;35.234;23.636;2023-09-19T06:11:58;12.82;;;5.03;;
83030;SDS011;72845;35.234;23.636;2023-09-19T06:14:25;11.85;;;4.95;;
83030;SDS011;72845;35.234;23.636;2023-09-19T06:16:51;12.52;;;4.00;;
83030;SDS011;72845;35.234;23.636;2023-09-19T06:19:19;11.15;;;4.85;;
83030;SDS011;72845;35.234;23.636;2023-09-19T06:21:48;10.00;;;4.90;;
83030;SDS011;72845;35.234;23.636;2023-09-19T06:24:14;12.18;;;4.68;;
83030;SDS011;72845;35.234;23.636;2023-09-19T06:26:39;9.35;;;4.30;;
83030;SDS011;72845;35.234;23.636;2023-09-19T06:29:05;8.57;;;4.72;;
83030;SDS011;72845;35.234;23.636;2023-09-19T06:31:32;12.25;;;5.97;;
83030;SDS011;72845;35.234;23.636;2023-09-19T06:33:58;14.48;;;4.55;;
83030;SDS011;72845;35.234;23.636;2023-09-19T06:36:23;13.18;;;4.72;;
83030;SDS011;72845;35.234;23.636;2023-09-19T06:38:49;9.05;;;4.47;;
83030;SDS011;72845;35.234;23.636;2023-09-19T06:41:16;16.05;;;5.45;;
83030;SDS011;72845;35.234;23.636;2023-09-19T06:43:42;14.05;;;5.25;;
83030;SDS011;72845;35.234;23.636;2023-09-19T06:46:09;12.60;;;4.70;;
83030;SDS011;72845;35.234;23.636;2023-09-19T06:48:34;13.63;;;5.75;;
83030;SDS011;72845;35.234;23.636;2023-09-19T06:51:00;21.67;;;5.97;;
83030;SDS011;72845;35.234;23.636;2023-09-19T06:53:32;19.25;;;5.47;;
83030;SDS011;72845;35.234;23.636;2023-09-19T06:56:00;13.07;;;4.72;;
83030;SDS011;72845;35.234;23.636;2023-09-19T06:58:25;12.73;;;4.75;;
83030;SDS011;72845;35.234;23.636;2023-09-19T07:00:51;9.07;;;4.20;;
83030;SDS011;72845;35.234;23.636;2023-09-19T07:03:16;8.00;;;4.40;;
83030;SDS011;72845;35.234;23.636;2023-09-19T07:05:47;9.30;;;4.55;;
83030;SDS011;72845;35.234;23.636;2023-09-19T07:08:12;8.65;;;4.78;;
83030;SDS011;72845;35.234;23.636;2023-09-19T07:10:38;8.95;;;4.95;;
83030;SDS011;72845;35.234;23.636;2023-09-19T07:15:36;30.20;;;6.43;;
83030;SDS011;72845;35.234;23.636;2023-09-19T07:18:04;15.57;;;5.28;;
83030;SDS011;72845;35.234;23.636;2023-09-19T07:20:30;17.58;;;4.55;;
83030;SDS011;72845;35.234;23.636;2023-09-19T07:22:57;15.23;;;5.40;;
83030;SDS011;72845;35.234;23.636;2023-09-19T07:25:24;17.60;;;4.85;;
83030;SDS011;72845;35.234;23.636;2023-09-19T07:27:50;22.88;;;5.30;;
83030;SDS011;72845;35.234;23.636;2023-09-19T07:30:16;13.60;;;4.75;;
83030;SDS011;72845;35.234;23.636;2023-09-19T07:32:42;11.00;;;4.05;;
83030;SDS011;72845;35.234;23.636;2023-09-19T07:35:07;11.40;;;4.70;;
83030;SDS011;72845;35.234;23.636;2023-09-19T07:37:33;14.00;;;4.78;;
83030;SDS011;72845;35.234;23.636;2023-09-19T07:39:59;10.73;;;4.95;;
83030;SDS011;72845;35.234;23.636;2023-09-19T07:42:24;9.77;;;4.88;;
83030;SDS011;72845;35.234;23.636;2023-09-19T07:44:51;11.35;;;4.65;;
83030;SDS011;72845;35.234;23.636;2023-09-19T07:47:16;9.85;;;4.63;;
83030;SDS011;72845;35.234;23.636;2023-09-19T07:49:42;12.18;;;4.60;;
83030;SDS011;72845;35.234;23.636;2023-09-19T07:52:08;10.35;;;4.88;;
83030;SDS011;72845;35.234;23.636;2023-09-19T07:54:34;10.43;;;4.63;;
83030;SDS011;72845;35.234;23.636;2023-09-19T07:57:01;11.50;;;4.68;;
83030;SDS011;72845;35.234;23.636;2023-09-19T07:59:26;21.35;;;5.22;;
83030;SDS011;72845;35.234;23.636;2023-09-19T08:01:51;14.25;;;4.93;;
83030;SDS011;72845;35.234;23.636;2023-09-19T08:04:17;10.43;;;4.65;;
83030;SDS011;72845;35.234;23.636;2023-09-19T08:06:44;19.65;;;5.18;;
83030;SDS011;72845;35.234;23.636;2023-09-19T08:09:10;11.43;;;4.43;;
83030;SDS011;72845;35.234;23.636;2023-09-19T08:11:36;13.10;;;4.82;;
83030;SDS011;72845;35.234;23.636;2023-09-19T08:14:02;12.50;;;4.80;;
83030;SDS011;72845;35.234;23.636;2023-09-19T08:16:27;9.82;;;4.18;;
83030;SDS011;72845;35.234;23.636;2023-09-19T08:18:53;14.43;;;4.85;;
83030;SDS011;72845;35.234;23.636;2023-09-19T08:21:21;12.88;;;5.40;;
83030;SDS011;72845;35.234;23.636;2023-09-19T08:23:46;12.70;;;4.47;;
83030;SDS011;72845;35.234;23.636;2023-09-19T08:26:12;9.95;;;4.47;;
83030;SDS011;72845;35.234;23.636;2023-09-19T08:28:37;10.27;;;4.55;;
83030;SDS011;72845;35.234;23.636;2023-09-19T08:31:06;16.58;;;4.80;;
83030;SDS011;72845;35.234;23.636;2023-09-19T08:33:35;11.10;;;4.28;;
83030;SDS011;72845;35.234;23.636;2023-09-19T08:36:03;8.00;;;4.53;;
83030;SDS011;72845;35.234;23.636;2023-09-19T08:38:31;13.43;;;4.10;;
83030;SDS011;72845;35.234;23.636;2023-09-19T08:40:58;16.35;;;5.10;;
83030;SDS011;72845;35.234;23.636;2023-09-19T08:43:24;16.13;;;4.53;;
83030;SDS011;72845;35.234;23.636;2023-09-19T08:45:50;11.75;;;4.63;;
83030;SDS011;72845;35.234;23.636;2023-09-19T08:48:27;19.15;;;4.88;;
83030;SDS011;72845;35.234;23.636;2023-09-19T08:51:03;8.70;;;4.50;;
83030;SDS011;72845;35.234;23.636;2023-09-19T08:53:41;12.52;;;5.25;;
83030;SDS011;72845;35.234;23.636;2023-09-19T08:56:11;13.30;;;4.72;;
83030;SDS011;72845;35.234;23.636;2023-09-19T08:58:44;9.23;;;4.22;;
83030;SDS011;72845;35.234;23.636;2023-09-19T09:01:12;5.97;;;3.88;;
83030;SDS011;72845;35.234;23.636;2023-09-19T09:03:39;10.77;;;4.32;;
83030;SDS011;72845;35.234;23.636;2023-09-19T09:06:06;10.80;;;4.25;;
83030;SDS011;72845;35.234;23.636;2023-09-19T09:08:32;14.98;;;4.80;;
83030;SDS011;72845;35.234;23.636;2023-09-19T09:10:58;8.02;;;4.20;;
83030;SDS011;72845;35.234;23.636;2023-09-19T09:13:24;8.88;;;4.32;;
83030;SDS011;72845;35.234;23.636;2023-09-19T09:15:51;8.50;;;4.32;;
83030;SDS011;72845;35.234;23.636;2023-09-19T09:18:16;13.20;;;5.15;;
83030;SDS011;72845;35.234;23.636;2023-09-19T09:20:43;12.48;;;4.43;;
83030;SDS011;72845;35.234;23.636;2023-09-19T09:23:09;11.65;;;4.40;;
83030;SDS011;72845;35.234;23.636;2023-09-19T09:25:51;9.52;;;4.35;;
83030;SDS011;72845;35.234;23.636;2023-09-19T09:28:23;11.43;;;4.53;;
83030;SDS011;72845;35.234;23.636;2023-09-19T09:30:48;10.93;;;4.47;;
83030;SDS011;72845;35.234;23.636;2023-09-19T09:33:15;10.68;;;4.22;;
83030;SDS011;72845;35.234;23.636;2023-09-19T09:35:47;8.98;;;4.32;;
83030;SDS011;72845;35.234;23.636;2023-09-19T09:38:17;10.77;;;4.70;;
83030;SDS011;72845;35.234;23.636;2023-09-19T09:40:50;10.63;;;4.40;;
83030;SDS011;72845;35.234;23.636;2023-09-19T09:43:28;7.45;;;4.60;;
83030;SDS011;72845;35.234;23.636;2023-09-19T09:46:13;9.35;;;4.43;;
83030;SDS011;72845;35.234;23.636;2023-09-19T09:49:02;10.43;;;4.50;;
83030;SDS011;72845;35.234;23.636;2023-09-19T09:52:03;12.13;;;4.50;;
83030;SDS011;72845;35.234;23.636;2023-09-19T09:54:33;10.00;;;4.55;;
83030;SDS011;72845;35.234;23.636;2023-09-19T09:57:02;13.57;;;5.05;;
83030;SDS011;72845;35.234;23.636;2023-09-19T09:59:55;10.68;;;4.57;;
83030;SDS011;72845;35.234;23.636;2023-09-19T10:02:29;11.60;;;4.63;;
83030;SDS011;72845;35.234;23.636;2023-09-19T10:04:58;22.15;;;4.97;;
83030;SDS011;72845;35.234;23.636;2023-09-19T10:07:39;13.40;;;4.55;;
83030;SDS011;72845;35.234;23.636;2023-09-19T10:10:06;9.73;;;4.53;;
83030;SDS011;72845;35.234;23.636;2023-09-19T10:12:44;8.00;;;4.43;;
83030;SDS011;72845;35.234;23.636;2023-09-19T10:15:11;19.17;;;4.80;;
83030;SDS011;72845;35.234;23.636;2023-09-19T10:17:42;7.88;;;4.38;;
83030;SDS011;72845;35.234;23.636;2023-09-19T10:20:08;10.48;;;4.80;;
83030;SDS011;72845;35.234;23.636;2023-09-19T10:22:47;13.02;;;5.03;;
83030;SDS011;72845;35.234;23.636;2023-09-19T10:25:24;8.73;;;3.80;;
83030;SDS011;72845;35.234;23.636;2023-09-19T10:27:50;7.10;;;4.40;;
83030;SDS011;72845;35.234;23.636;2023-09-19T10:30:18;11.50;;;4.80;;
83030;SDS011;72845;35.234;23.636;2023-09-19T10:32:45;10.48;;;4.10;;
83030;SDS011;72845;35.234;23.636;2023-09-19T10:35:12;20.48;;;5.05;;
83030;SDS011;72845;35.234;23.636;2023-09-19T10:37:38;11.02;;;4.90;;
83030;SDS011;72845;35.234;23.636;2023-09-19T10:40:05;9.65;;;4.20;;
83030;SDS011;72845;35.234;23.636;2023-09-19T10:42:33;9.52;;;5.00;;
83030;SDS011;72845;35.234;23.636;2023-09-19T10:45:03;15.65;;;4.55;;
83030;SDS011;72845;35.234;23.636;2023-09-19T10:47:32;16.83;;;8.85;;
83030;SDS011;72845;35.234;23.636;2023-09-19T10:49:58;12.65;;;5.72;;
83030;SDS011;72845;35.234;23.636;2023-09-19T10:52:23;29.95;;;14.75;;
83030;SDS011;72845;35.234;23.636;2023-09-19T10:54:50;15.20;;;8.45;;
83030;SDS011;72845;35.234;23.636;2023-09-19T10:57:22;51.03;;;37.13;;
83030;SDS011;72845;35.234;23.636;2023-09-19T11:00:05;39.88;;;31.05;;
83030;SDS011;72845;35.234;23.636;2023-09-19T11:17:02;18.42;;;13.63;;
83030;SDS011;72845;35.234;23.636;2023-09-19T11:19:48;26.20;;;19.48;;
83030;SDS011;72845;35.234;23.636;2023-09-19T11:22:13;7.72;;;4.85;;
83030;SDS011;72845;35.234;23.636;2023-09-19T11:24:38;8.93;;;4.20;;
83030;SDS011;72845;35.234;23.636;2023-09-19T11:27:11;13.63;;;5.07;;
83030;SDS011;72845;35.234;23.636;2023-09-19T11:31:58;11.38;;;4.40;;
83030;SDS011;72845;35.234;23.636;2023-09-19T11:34:43;10.13;;;4.07;;
83030;SDS011;72845;35.234;23.636;2023-09-19T11:39:40;7.55;;;3.47;;
83030;SDS011;72845;35.234;23.636;2023-09-19T11:44:52;8.77;;;4.32;;
83030;SDS011;72845;35.234;23.636;2023-09-19T11:47:21;9.13;;;3.90;;
83030;SDS011;72845;35.234;23.636;2023-09-19T11:49:48;14.63;;;4.13;;
83030;SDS011;72845;35.234;23.636;2023-09-19T11:52:18;12.48;;;4.63;;
83030;SDS011;72845;35.234;23.636;2023-09-19T11:54:49;13.40;;;4.50;;
83030;SDS011;72845;35.234;23.636;2023-09-19T11:57:39;19.67;;;5.07;;
83030;SDS011;72845;35.234;23.636;2023-09-19T12:00:32;6.70;;;3.65;;
83030;SDS011;72845;35.234;23.636;2023-09-19T12:02:59;8.15;;;4.22;;
83030;SDS011;72845;35.234;23.636;2023-09-19T12:05:28;32.58;;;5.10;;
83030;SDS011;72845;35.234;23.636;2023-09-19T12:07:54;14.07;;;4.47;;
83030;SDS011;72845;35.234;23.636;2023-09-19T12:10:20;16.83;;;4.68;;
83030;SDS011;72845;35.234;23.636;2023-09-19T12:12:48;21.98;;;4.70;;
83030;SDS011;72845;35.234;23.636;2023-09-19T12:15:27;11.57;;;4.03;;
83030;SDS011;72845;35.234;23.636;2023-09-19T12:18:01;12.77;;;4.20;;
83030;SDS011;72845;35.234;23.636;2023-09-19T12:20:42;17.42;;;4.10;;
83030;SDS011;72845;35.234;23.636;2023-09-19T12:23:14;15.38;;;4.80;;
83030;SDS011;72845;35.234;23.636;2023-09-19T12:25:44;12.32;;;4.28;;
83030;SDS011;72845;35.234;23.636;2023-09-19T12:28:13;18.90;;;5.47;;
83030;SDS011;72845;35.234;23.636;2023-09-19T12:30:39;17.10;;;5.38;;
83030;SDS011;72845;35.234;23.636;2023-09-19T12:36:20;15.88;;;4.57;;
83030;SDS011;72845;35.234;23.636;2023-09-19T12:39:22;6.53;;;4.28;;
83030;SDS011;72845;35.234;23.636;2023-09-19T12:41:48;11.95;;;4.70;;
83030;SDS011;72845;35.234;23.636;2023-09-19T12:44:16;8.80;;;3.40;;
83030;SDS011;72845;35.234;23.636;2023-09-19T12:46:44;13.30;;;4.00;;
83030;SDS011;72845;35.234;23.636;2023-09-19T12:49:17;6.50;;;3.95;;
83030;SDS011;72845;35.234;23.636;2023-09-19T12:51:43;12.38;;;4.40;;
83030;SDS011;72845;35.234;23.636;2023-09-19T12:54:09;8.90;;;3.83;;
83030;SDS011;72845;35.234;23.636;2023-09-19T12:56:39;10.30;;;3.80;;
83030;SDS011;72845;35.234;23.636;2023-09-19T12:59:06;11.27;;;4.68;;
83030;SDS011;72845;35.234;23.636;2023-09-19T13:01:35;9.50;;;4.47;;
83030;SDS011;72845;35.234;23.636;2023-09-19T13:04:21;10.52;;;3.88;;
83030;SDS011;72845;35.234;23.636;2023-09-19T13:06:55;7.45;;;3.83;;
83030;SDS011;72845;35.234;23.636;2023-09-19T13:09:26;17.88;;;4.40;;
83030;SDS011;72845;35.234;23.636;2023-09-19T13:12:00;7.80;;;4.03;;
83030;SDS011;72845;35.234;23.636;2023-09-19T13:14:27;9.43;;;4.30;;
83030;SDS011;72845;35.234;23.636;2023-09-19T13:19:35;9.43;;;4.18;;
83030;SDS011;72845;35.234;23.636;2023-09-19T13:22:01;7.90;;;3.83;;
83030;SDS011;72845;35.234;23.636;2023-09-19T13:24:27;11.77;;;3.42;;
83030;SDS011;72845;35.234;23.636;2023-09-19T13:26:55;9.35;;;3.80;;
83030;SDS011;72845;35.234;23.636;2023-09-19T13:29:21;9.60;;;3.80;;
83030;SDS011;72845;35.234;23.636;2023-09-19T13:31:50;10.55;;;3.70;;
83030;SDS011;72845;35.234;23.636;2023-09-19T13:34:16;6.22;;;3.58;;
83030;SDS011;72845;35.234;23.636;2023-09-19T13:36:43;17.48;;;4.07;;
83030;SDS011;72845;35.234;23.636;2023-09-19T13:39:09;11.63;;;3.97;;
83030;SDS011;72845;35.234;23.636;2023-09-19T13:41:35;22.20;;;5.00;;
83030;SDS011;72845;35.234;23.636;2023-09-19T13:44:02;7.72;;;3.70;;
83030;SDS011;72845;35.234;23.636;2023-09-19T13:46:28;23.92;;;4.90;;
83030;SDS011;72845;35.234;23.636;2023-09-19T13:48:56;11.38;;;3.67;;
83030;SDS011;72845;35.234;23.636;2023-09-19T13:51:27;8.63;;;3.40;;
83030;SDS011;72845;35.234;23.636;2023-09-19T13:53:55;8.07;;;3.50;;
83030;SDS011;72845;35.234;23.636;2023-09-19T13:56:21;7.50;;;3.40;;
83030;SDS011;72845;35.234;23.636;2023-09-19T13:58:47;6.22;;;3.25;;
83030;SDS011;72845;35.234;23.636;2023-09-19T14:01:12;9.35;;;3.70;;
83030;SDS011;72845;35.234;23.636;2023-09-19T14:03:41;7.10;;;3.58;;
83030;SDS011;72845;35.234;23.636;2023-09-19T14:06:12;10.43;;;3.20;;
83030;SDS011;72845;35.234;23.636;2023-09-19T14:08:37;7.32;;;3.10;;
83030;SDS011;72845;35.234;23.636;2023-09-19T14:11:10;7.82;;;3.42;;
83030;SDS011;72845;35.234;23.636;2023-09-19T14:13:58;7.43;;;3.10;;
83030;SDS011;72845;35.234;23.636;2023-09-19T14:16:24;8.07;;;3.70;;
83030;SDS011;72845;35.234;23.636;2023-09-19T14:18:49;7.53;;;3.30;;
83030;SDS011;72845;35.234;23.636;2023-09-19T14:21:15;8.63;;;3.17;;
83030;SDS011;72845;35.234;23.636;2023-09-19T14:23:41;9.35;;;3.40;;
83030;SDS011;72845;35.234;23.636;2023-09-19T14:26:08;10.05;;;3.53;;
83030;SDS011;72845;35.234;23.636;2023-09-19T14:28:34;7.22;;;3.10;;
83030;SDS011;72845;35.234;23.636;2023-09-19T14:31:06;8.43;;;3.65;;
83030;SDS011;72845;35.234;23.636;2023-09-19T14:33:33;9.93;;;3.33;;
83030;SDS011;72845;35.234;23.636;2023-09-19T14:35:58;15.20;;;3.72;;
83030;SDS011;72845;35.234;23.636;2023-09-19T14:38:27;12.45;;;4.55;;
83030;SDS011;72845;35.234;23.636;2023-09-19T14:41:04;15.57;;;4.82;;
83030;SDS011;72845;35.234;23.636;2023-09-19T14:43:30;10.80;;;4.10;;
83030;SDS011;72845;35.234;23.636;2023-09-19T14:48:29;22.48;;;4.95;;
83030;SDS011;72845;35.234;23.636;2023-09-19T14:50:55;9.63;;;3.70;;
83030;SDS011;72845;35.234;23.636;2023-09-19T14:53:21;6.40;;;3.05;;
83030;SDS011;72845;35.234;23.636;2023-09-19T14:55:46;7.60;;;3.55;;
83030;SDS011;72845;35.234;23.636;2023-09-19T14:58:13;14.25;;;4.07;;
83030;SDS011;72845;35.234;23.636;2023-09-19T15:00:39;10.38;;;4.25;;
83030;SDS011;72845;35.234;23.636;2023-09-19T15:03:04;16.02;;;4.35;;
83030;SDS011;72845;35.234;23.636;2023-09-19T15:05:31;22.60;;;4.38;;
83030;SDS011;72845;35.234;23.636;2023-09-19T15:07:56;11.73;;;4.32;;
83030;SDS011;72845;35.234;23.636;2023-09-19T15:10:23;58.25;;;7.35;;
83030;SDS011;72845;35.234;23.636;2023-09-19T15:12:49;60.97;;;7.88;;
83030;SDS011;72845;35.234;23.636;2023-09-19T15:15:15;22.73;;;4.72;;
83030;SDS011;72845;35.234;23.636;2023-09-19T15:17:41;54.28;;;6.32;;
83030;SDS011;72845;35.234;23.636;2023-09-19T15:20:07;12.05;;;4.82;;